Time;durP1;ratioP1;P1;durP2;ratioP2;P2;SDS_P1;SDS_P2;PMS_P1;PMS_P2;Temp;Humidity;BMP_temperature;BMP_pressure;BME280_temperature;BME280_humidity;BME280_pressure;Samples;Min_cycle;Max_cycle;Signal;HPM_P1;HPM_P2
2023/12/05 00:02:09;;;;;;;;;;;;;;;;;;4982431;28;58924;-76
2023/12/05 00:04:36;;;;;;;;;;;;;;;;;;4982950;28;58374;-76
2023/12/05 00:07:01;;;;;;;;;;;;;;;;;;4983449;28;58525;-76
2023/12/05 00:09:26;;;;;;;;;;;;;;;;;;4981086;28;59098;-76
2023/12/05 00:11:51;;;;;;;;;;;;;;;;;;4983771;28;58347;-76
2023/12/05 00:14:16;;;;;;;;;;;;;;;;;;4984695;28;58831;-76
2023/12/05 00:16:41;;;;;;;;;;;;;;;;;;4981098;28;57808;-76
2023/12/05 00:19:06;;;;;;;;;;;;;;;;;;4984382;28;60650;-76
2023/12/05 00:21:31;;;;;;;;;;;;;;;;;;4979522;28;58426;-74
2023/12/05 00:23:56;;;;;;;;;;;;;;;;;;4979299;28;58161;-74
2023/12/05 00:26:22;;;;;;;;;;;;;;;;;;4983980;28;59613;-72
2023/12/05 00:28:47;;;;;;;;;;;;;;;;;;4981489;28;59781;-71
2023/12/05 00:31:12;;;;;;;;;;;;;;;;;;4982619;28;58485;-71
2023/12/05 00:33:37;;;;;;;;;;;;;;;;;;4985376;28;58734;-71
2023/12/05 00:36:02;;;;;;;;;;;;;;;;;;4982090;28;58387;-73
2023/12/05 00:38:27;;;;;;;;;;;;;;;;;;4982736;28;59837;-71
2023/12/05 00:40:52;;;;;;;;;;;;;;;;;;4982774;28;60188;-71
2023/12/05 00:43:17;;;;;;;;;;;;;;;;;;4983507;28;58401;-71
2023/12/05 00:45:43;;;;;;;;;;;;;;;;;;4983465;28;59537;-71
2023/12/05 00:48:08;;;;;;;;;;;;;;;;;;4982556;28;58446;-71
2023/12/05 00:50:33;;;;;;;;;;;;;;;;;;4977342;28;58474;-72
2023/12/05 00:52:58;;;;;;;;;;;;;;;;;;4982925;28;59343;-71
2023/12/05 00:55:23;;;;;;;;;;;;;;;;;;4981952;28;58565;-73
2023/12/05 00:57:48;;;;;;;;;;;;;;;;;;4981807;28;59847;-73
2023/12/05 01:00:13;;;;;;;;;;;;;;;;;;4982321;28;58758;-71
2023/12/05 01:02:38;;;;;;;;;;;;;;;;;;4981646;28;58361;-72
2023/12/05 01:05:03;;;;;;;;;;;;;;;;;;4977921;28;60338;-73
2023/12/05 01:07:28;;;;;;;;;;;;;;;;;;4981408;28;58469;-73
2023/12/05 01:09:53;;;;;;;;;;;;;;;;;;4980716;28;58292;-73
2023/12/05 01:12:18;;;;;;;;;;;;;;;;;;4982588;28;58623;-72
2023/12/05 01:14:43;;;;;;;;;;;;;;;;;;4982020;28;59130;-73
2023/12/05 01:17:09;;;;;;;;;;;;;;;;;;4981941;28;58492;-72
2023/12/05 01:19:35;;;;;;;;;;;;;;;;;;4978669;28;58667;-73
2023/12/05 01:22:02;;;;;;;;;;;;;;;;;;4982206;28;58583;-73
2023/12/05 01:24:27;;;;;;;;;;;;;;;;;;4981762;28;59548;-77
2023/12/05 01:26:52;;;;;;;;;;;;;;;;;;4980686;28;59197;-76
2023/12/05 01:29:18;;;;;;;;;;;;;;;;;;4980497;28;58458;-76
2023/12/05 01:31:43;;;;;;;;;;;;;;;;;;4980312;28;59520;-74
2023/12/05 01:34:08;;;;;;;;;;;;;;;;;;4982873;28;58516;-76
2023/12/05 01:36:33;;;;;;;;;;;;;;;;;;4983473;28;57872;-73
2023/12/05 01:38:58;;;;;;;;;;;;;;;;;;4982321;28;58377;-76
2023/12/05 01:41:23;;;;;;;;;;;;;;;;;;4979310;28;58486;-76
2023/12/05 01:43:49;;;;;;;;;;;;;;;;;;4983084;28;58512;-76
2023/12/05 01:46:14;;;;;;;;;;;;;;;;;;4979965;28;58730;-76
2023/12/05 01:48:39;;;;;;;;;;;;;;;;;;4982227;28;58443;-76
2023/12/05 01:51:04;;;;;;;;;;;;;;;;;;4978945;28;59839;-76
2023/12/05 01:53:29;;;;;;;;;;;;;;;;;;4983163;28;59085;-76
2023/12/05 01:55:54;;;;;;;;;;;;;;;;;;4996725;28;58376;-75
2023/12/05 01:58:19;;;;;;;;;;;;;;;;;;4983576;28;60505;-76
2023/12/05 02:00:45;;;;;;;;;;;;;;;;;;4980495;28;58307;-76
2023/12/05 02:03:10;;;;;;;;;;;;;;;;;;4982158;28;59340;-76
2023/12/05 02:05:35;;;;;;;;;;;;;;;;;;4982093;28;58433;-76
2023/12/05 02:08:00;;;;;;;;;;;;;;;;;;4980713;28;58462;-75
2023/12/05 02:10:25;;;;;;;;;;;;;;;;;;4980711;28;58474;-76
2023/12/05 02:12:51;;;;;;;;;;;;;;;;;;4982105;28;58968;-76
2023/12/05 02:15:16;;;;;;;;;;;;;;;;;;4981365;28;58788;-76
2023/12/05 02:17:41;;;;;;;;;;;;;;;;;;4981621;28;59519;-75
2023/12/05 02:20:09;;;;;;;;;;;;;;;;;;4981067;28;59046;-76
2023/12/05 02:22:34;;;;;;;;;;;;;;;;;;4984374;28;59439;-76
2023/12/05 02:24:59;;;;;;;;;;;;;;;;;;4983851;28;59911;-76
2023/12/05 02:27:24;;;;;;;;;;;;;;;;;;4985506;28;58306;-76
2023/12/05 02:29:49;;;;;;;;;;;;;;;;;;4985148;28;58457;-75
2023/12/05 02:32:14;;;;;;;;;;;;;;;;;;4983296;28;58777;-76
2023/12/05 02:34:39;;;;;;;;;;;;;;;;;;4984291;28;58427;-72
2023/12/05 02:37:04;;;;;;;;;;;;;;;;;;4984824;28;58873;-72
2023/12/05 02:39:29;;;;;;;;;;;;;;;;;;4984900;28;58879;-70
2023/12/05 02:41:54;;;;;;;;;;;;;;;;;;4985914;28;58432;-73
2023/12/05 02:44:20;;;;;;;;;;;;;;;;;;4985499;28;59581;-74
2023/12/05 02:46:45;;;;;;;;;;;;;;;;;;4983233;28;58467;-74
2023/12/05 02:49:11;;;;;;;;;;;;;;;;;;4984182;28;59401;-74
2023/12/05 02:51:36;;;;;;;;;;;;;;;;;;4984803;28;59928;-75
2023/12/05 02:54:05;;;;;;;;;;;;;;;;;;4985018;28;58531;-76
2023/12/05 02:56:31;;;;;;;;;;;;;;;;;;4983668;28;59862;-74
2023/12/05 02:58:56;;;;;;;;;;;;;;;;;;4984942;28;59832;-75
2023/12/05 03:01:21;;;;;;;;;;;;;;;;;;4984998;28;58292;-76
2023/12/05 03:03:46;;;;;;;;;;;;;;;;;;4984181;28;59359;-74
2023/12/05 03:06:11;;;;;;;;;;;;;;;;;;4984944;28;58357;-75
2023/12/05 03:08:36;;;;;;;;;;;;;;;;;;4985007;28;59400;-74
2023/12/05 03:11:01;;;;;;;;;;;;;;;;;;4984355;28;59243;-73
2023/12/05 03:13:27;;;;;;;;;;;;;;;;;;4986040;28;58361;-74
2023/12/05 03:15:52;;;;;;;;;;;;;;;;;;4986490;28;59394;-73
2023/12/05 03:18:17;;;;;;;;;;;;;;;;;;4982390;28;59222;-74
2023/12/05 03:20:42;;;;;;;;;;;;;;;;;;4984704;28;58415;-74
2023/12/05 03:23:07;;;;;;;;;;;;;;;;;;4986316;28;58884;-74
2023/12/05 03:25:32;;;;;;;;;;;;;;;;;;4985116;28;58442;-74
2023/12/05 03:27:57;;;;;;;;;;;;;;;;;;4984818;28;60398;-74
2023/12/05 03:30:22;;;;;;;;;;;;;;;;;;4985506;28;58896;-75
2023/12/05 03:32:47;;;;;;;;;;;;;;;;;;4982591;28;58435;-74
2023/12/05 03:35:12;;;;;;;;;;;;;;;;;;4983740;28;59290;-74
2023/12/05 03:37:37;;;;;;;;;;;;;;;;;;4982524;28;58596;-74
2023/12/05 03:40:03;;;;;;;;;;;;;;;;;;4984768;28;58264;-74
2023/12/05 03:42:28;;;;;;;;;;;;;;;;;;4985216;28;59563;-74
2023/12/05 03:44:53;;;;;;;;;;;;;;;;;;4986351;28;59028;-75
2023/12/05 03:47:18;;;;;;;;;;;;;;;;;;4982289;28;59336;-76
2023/12/05 03:49:43;;;;;;;;;;;;;;;;;;4983955;28;58925;-73
2023/12/05 03:52:08;;;;;;;;;;;;;;;;;;4983885;28;58577;-73
2023/12/05 03:54:33;;;;;;;;;;;;;;;;;;4983644;28;58500;-74
2023/12/05 03:56:58;;;;;;;;;;;;;;;;;;4984342;28;58818;-73
2023/12/05 03:59:23;;;;;;;;;;;;;;;;;;4985478;28;58777;-74
2023/12/05 04:01:48;;;;;;;;;;;;;;;;;;4982954;28;59309;-74
2023/12/05 04:04:13;;;;;;;;;;;;;;;;;;4983502;28;59033;-74
2023/12/05 04:06:38;;;;;;;;;;;;;;;;;;4983034;28;58863;-74
2023/12/05 04:09:04;;;;;;;;;;;;;;;;;;4980544;28;58914;-74
2023/12/05 04:11:30;;;;;;;;;;;;;;;;;;4983734;28;58239;-74
2023/12/05 04:13:55;;;;;;;;;;;;;;;;;;4983394;28;59408;-74
2023/12/05 04:16:20;;;;;;;;;;;;;;;;;;4978104;28;59330;-74
2023/12/05 04:18:45;;;;;;;;;;;;;;;;;;4984611;28;58498;-74
2023/12/05 04:21:10;;;;;;;;;;;;;;;;;;4981894;28;59375;-74
2023/12/05 04:23:36;;;;;;;;;;;;;;;;;;4983419;28;59015;-74
2023/12/05 04:26:01;;;;;;;;;;;;;;;;;;4985907;28;58145;-74
2023/12/05 04:28:26;;;;;;;;;;;;;;;;;;4983627;28;59523;-77
2023/12/05 04:30:51;;;;;;;;;;;;;;;;;;4985059;28;58402;-74
2023/12/05 04:33:16;;;;;;;;;;;;;;;;;;4986323;28;59532;-74
2023/12/05 04:35:41;;;;;;;;;;;;;;;;;;4981476;28;58619;-76
2023/12/05 04:38:06;;;;;;;;;;;;;;;;;;4984721;28;58482;-76
2023/12/05 04:40:31;;;;;;;;;;;;;;;;;;4982914;28;60448;-76
2023/12/05 04:42:56;;;;;;;;;;;;;;;;;;4984566;28;58869;-75
2023/12/05 04:45:21;;;;;;;;;;;;;;;;;;4983110;28;58242;-76
2023/12/05 04:47:47;;;;;;;;;;;;;;;;;;4980776;28;59142;-76
2023/12/05 04:50:12;;;;;;;;;;;;;;;;;;4983071;28;59269;-76
2023/12/05 04:52:37;;;;;;;;;;;;;;;;;;4983087;28;59484;-76
2023/12/05 04:55:02;;;;;;;;;;;;;;;;;;4980501;28;59122;-71
2023/12/05 04:57:27;;;;;;;;;;;;;;;;;;4983038;28;58398;-72
2023/12/05 04:59:52;;;;;;;;;;;;;;;;;;4983765;28;59423;-73
2023/12/05 05:02:17;;;;;;;;;;;;;;;;;;4979668;28;59091;-70
2023/12/05 05:04:42;;;;;;;;;;;;;;;;;;4982480;28;58137;-76
2023/12/05 05:07:07;;;;;;;;;;;;;;;;;;4982268;28;58564;-76
2023/12/05 05:09:32;;;;;;;;;;;;;;;;;;4980132;28;58991;-76
2023/12/05 05:11:57;;;;;;;;;;;;;;;;;;4982056;28;58434;-76
2023/12/05 05:14:22;;;;;;;;;;;;;;;;;;4980587;28;59742;-76
2023/12/05 05:16:48;;;;;;;;;;;;;;;;;;4980954;28;58480;-76
2023/12/05 05:19:13;;;;;;;;;;;;;;;;;;4981939;28;60134;-76
2023/12/05 05:21:38;;;;;;;;;;;;;;;;;;4981079;28;58307;-76
2023/12/05 05:24:03;;;;;;;;;;;;;;;;;;4980360;28;58350;-76
2023/12/05 05:26:28;;;;;;;;;;;;;;;;;;4981802;28;59482;-76
2023/12/05 05:28:53;;;;;;;;;;;;;;;;;;4982694;28;58848;-75
2023/12/05 05:31:18;;;;;;;;;;;;;;;;;;4979101;28;57906;-76
2023/12/05 05:33:43;;;;;;;;;;;;;;;;;;4982374;28;59756;-75
2023/12/05 05:36:08;;;;;;;;;;;;;;;;;;4982344;28;58494;-76
2023/12/05 05:38:33;;;;;;;;;;;;;;;;;;4981629;28;59517;-76
2023/12/05 05:40:58;;;;;;;;;;;;;;;;;;4982113;28;57982;-76
2023/12/05 05:43:24;;;;;;;;;;;;;;;;;;4982984;28;58350;-76
2023/12/05 05:45:49;;;;;;;;;;;;;;;;;;4982105;28;59516;-76
2023/12/05 05:48:14;;;;;;;;;;;;;;;;;;4982177;28;58382;-77
2023/12/05 05:50:40;;;;;;;;;;;;;;;;;;4981865;28;58389;-76
2023/12/05 05:53:05;;;;;;;;;;;;;;;;;;4982330;28;60000;-76
2023/12/05 05:55:30;;;;;;;;;;;;;;;;;;4981527;28;58451;-75
2023/12/05 05:57:55;;;;;;;;;;;;;;;;;;4984030;28;59626;-76
2023/12/05 06:00:20;;;;;;;;;;;;;;;;;;4983755;28;58834;-76
2023/12/05 06:02:46;;;;;;;;;;;;;;;;;;4987353;28;58471;-75
2023/12/05 06:05:11;;;;;;;;;;;;;;;;;;4985426;28;59303;-71
2023/12/05 06:07:36;;;;;;;;;;;;;;;;;;4986222;28;58607;-72
2023/12/05 06:10:01;;;;;;;;;;;;;;;;;;4986979;28;58599;-72
2023/12/05 06:12:26;;;;;;;;;;;;;;;;;;4986755;28;59499;-72
2023/12/05 06:14:51;;;;;;;;;;;;;;;;;;4984561;28;60035;-72
2023/12/05 06:17:16;;;;;;;;;;;;;;;;;;4984148;28;58416;-72
2023/12/05 06:19:42;;;;;;;;;;;;;;;;;;4984439;28;59172;-72
2023/12/05 06:22:07;;;;;;;;;;;;;;;;;;4986628;28;58395;-72
2023/12/05 06:24:32;;;;;;;;;;;;;;;;;;4986189;28;59622;-72
2023/12/05 06:26:57;;;;;;;;;;;;;;;;;;4983194;28;58835;-72
2023/12/05 06:29:22;;;;;;;;;;;;;;;;;;4985149;28;58389;-73
2023/12/05 06:31:47;;;;;;;;;;;;;;;;;;4983765;28;59346;-72
2023/12/05 06:34:12;;;;;;;;;;;;;;;;;;4985163;28;58861;-72
2023/12/05 06:36:37;;;;;;;;;;;;;;;;;;4984702;28;58559;-72
2023/12/05 06:39:03;;;;;;;;;;;;;;;;;;4985564;28;60049;-71
2023/12/05 06:41:28;;;;;;;;;;;;;;;;;;4983935;28;58394;-72
2023/12/05 06:43:53;;;;;;;;;;;;;;;;;;4985124;28;59441;-71
2023/12/05 06:46:18;;;;;;;;;;;;;;;;;;4982886;28;58881;-72
2023/12/05 06:48:43;;;;;;;;;;;;;;;;;;4983203;28;58494;-72
2023/12/05 06:51:08;;;;;;;;;;;;;;;;;;4980099;28;58855;-71
2023/12/05 06:53:34;;;;;;;;;;;;;;;;;;4982512;28;59091;-72
2023/12/05 06:55:59;;;;;;;;;;;;;;;;;;4982541;28;58355;-71
2023/12/05 06:58:24;;;;;;;;;;;;;;;;;;4986168;28;59469;-72
2023/12/05 07:00:49;;;;;;;;;;;;;;;;;;4983729;28;58158;-72
2023/12/05 07:03:15;;;;;;;;;;;;;;;;;;4985008;28;58538;-72
2023/12/05 07:05:40;;;;;;;;;;;;;;;;;;4982283;28;59090;-72
2023/12/05 07:08:06;;;;;;;;;;;;;;;;;;4982224;28;58427;-72
2023/12/05 07:10:31;;;;;;;;;;;;;;;;;;4983993;28;59925;-72
2023/12/05 07:12:57;;;;;;;;;;;;;;;;;;4980475;28;58831;-72
2023/12/05 07:15:22;;;;;;;;;;;;;;;;;;4983148;28;58483;-74
2023/12/05 07:17:47;;;;;;;;;;;;;;;;;;4982103;28;59475;-75
2023/12/05 07:20:12;;;;;;;;;;;;;;;;;;4982085;28;59609;-75
2023/12/05 07:22:38;;;;;;;;;;;;;;;;;;4980717;28;59580;-74
2023/12/05 07:25:03;;;;;;;;;;;;;;;;;;4982798;28;58787;-72
2023/12/05 07:27:28;;;;;;;;;;;;;;;;;;4984520;28;58463;-72
2023/12/05 07:29:53;;;;;;;;;;;;;;;;;;4983419;28;59385;-72
2023/12/05 07:32:19;;;;;;;;;;;;;;;;;;4983126;28;59609;-72
2023/12/05 07:34:44;;;;;;;;;;;;;;;;;;4983174;28;58582;-72
2023/12/05 07:37:09;;;;;;;;;;;;;;;;;;4984448;28;59453;-72
2023/12/05 07:39:35;;;;;;;;;;;;;;;;;;4982824;28;59167;-72
2023/12/05 07:42:00;;;;;;;;;;;;;;;;;;4980845;28;60349;-72
2023/12/05 07:44:25;;;;;;;;;;;;;;;;;;4984190;28;58689;-72
2023/12/05 07:46:50;;;;;;;;;;;;;;;;;;4981338;28;58483;-72
2023/12/05 07:49:16;;;;;;;;;;;;;;;;;;4983924;28;59734;-72
2023/12/05 07:51:41;;;;;;;;;;;;;;;;;;4981678;28;60327;-72
2023/12/05 07:54:06;;;;;;;;;;;;;;;;;;4984211;28;58346;-72
2023/12/05 07:56:31;;;;;;;;;;;;;;;;;;4984385;28;58881;-72
2023/12/05 07:58:56;;;;;;;;;;;;;;;;;;4981493;28;58924;-72
2023/12/05 08:01:21;;;;;;;;;;;;;;;;;;4983381;28;58656;-72
2023/12/05 08:03:46;;;;;;;;;;;;;;;;;;4982382;28;60136;-73
2023/12/05 08:06:12;;;;;;;;;;;;;;;;;;4980762;28;58365;-72
2023/12/05 08:08:37;;;;;;;;;;;;;;;;;;4984356;28;59566;-72
2023/12/05 08:11:02;;;;;;;;;;;;;;;;;;4982318;28;58358;-73
2023/12/05 08:13:27;;;;;;;;;;;;;;;;;;4983922;28;58534;-73
2023/12/05 08:15:52;;;;;;;;;;;;;;;;;;4982998;28;60277;-72
2023/12/05 08:18:17;;;;;;;;;;;;;;;;;;4982735;28;58805;-72
2023/12/05 08:20:42;;;;;;;;;;;;;;;;;;4981756;28;58980;-72
2023/12/05 08:23:09;;;;;;;;;;;;;;;;;;4984300;28;60299;-73
2023/12/05 08:25:34;;;;;;;;;;;;;;;;;;4983191;28;58127;-72
2023/12/05 08:27:59;;;;;;;;;;;;;;;;;;4985362;28;59751;-72
2023/12/05 08:30:24;;;;;;;;;;;;;;;;;;4980573;28;58289;-72
2023/12/05 08:32:49;;;;;;;;;;;;;;;;;;4981852;28;58481;-72
2023/12/05 08:35:14;;;;;;;;;;;;;;;;;;4981825;28;59831;-72
2023/12/05 08:37:39;;;;;;;;;;;;;;;;;;4984810;28;58604;-72
2023/12/05 08:40:04;;;;;;;;;;;;;;;;;;4982347;28;58432;-72
2023/12/05 08:42:29;;;;;;;;;;;;;;;;;;4981845;28;59402;-72
2023/12/05 08:44:54;;;;;;;;;;;;;;;;;;4982568;28;57856;-72
2023/12/05 08:47:19;;;;;;;;;;;;;;;;;;4982896;28;59716;-72
2023/12/05 08:49:44;;;;;;;;;;;;;;;;;;4980797;28;58936;-72
2023/12/05 08:52:09;;;;;;;;;;;;;;;;;;4984160;28;58517;-72
2023/12/05 08:54:34;;;;;;;;;;;;;;;;;;4983661;28;59387;-72
2023/12/05 08:56:59;;;;;;;;;;;;;;;;;;4983104;28;58248;-72
2023/12/05 08:59:25;;;;;;;;;;;;;;;;;;4983221;28;58486;-72
2023/12/05 09:01:50;;;;;;;;;;;;;;;;;;4982973;28;59676;-72
2023/12/05 09:04:15;;;;;;;;;;;;;;;;;;4983685;28;59667;-72
2023/12/05 09:06:40;;;;;;;;;;;;;;;;;;4985163;28;58481;-72
2023/12/05 09:09:05;;;;;;;;;;;;;;;;;;4982024;28;78154;-72
2023/12/05 09:11:30;;;;;;;;;;;;;;;;;;4982851;28;58528;-72
2023/12/05 09:13:56;;;;;;;;;;;;;;;;;;4983663;28;59338;-72
2023/12/05 09:16:21;;;;;;;;;;;;;;;;;;4981808;28;58917;-74
2023/12/05 09:18:46;;;;;;;;;;;;;;;;;;4982672;28;58434;-72
2023/12/05 09:21:11;;;;;;;;;;;;;;;;;;4982331;28;59381;-72
2023/12/05 09:23:36;;;;;;;;;;;;;;;;;;4983949;28;59056;-74
2023/12/05 09:26:01;;;;;;;;;;;;;;;;;;4984250;28;58616;-73
2023/12/05 09:28:27;;;;;;;;;;;;;;;;;;4983548;28;59467;-73
2023/12/05 09:30:53;;;;;;;;;;;;;;;;;;4983302;28;58415;-73
2023/12/05 09:33:18;;;;;;;;;;;;;;;;;;4982209;28;59523;-73
2023/12/05 09:35:43;;;;;;;;;;;;;;;;;;4982126;28;58983;-73
2023/12/05 09:38:08;;;;;;;;;;;;;;;;;;4983675;28;57710;-74
2023/12/05 09:40:35;;;;;;;;;;;;;;;;;;4982810;28;59399;-72
2023/12/05 09:43:01;;;;;;;;;;;;;;;;;;4983289;28;58935;-74
2023/12/05 09:45:27;;;;;;;;;;;;;;;;;;4981631;28;58308;-73
2023/12/05 09:47:52;;;;;;;;;;;;;;;;;;4978302;28;59566;-73
2023/12/05 09:50:18;;;;;;;;;;;;;;;;;;4982195;28;58494;-71
2023/12/05 09:52:44;;;;;;;;;;;;;;;;;;4977137;28;61138;-73
2023/12/05 09:55:09;;;;;;;;;;;;;;;;;;4963814;28;58821;-73
2023/12/05 09:57:34;;;;;;;;;;;;;;;;;;4982646;28;58541;-73
2023/12/05 09:59:59;;;;;;;;;;;;;;;;;;4982690;28;58518;-71
2023/12/05 10:02:24;;;;;;;;;;;;;;;;;;4981338;28;59187;-72
2023/12/05 10:04:49;;;;;;;;;;;;;;;;;;4982063;28;58425;-71
2023/12/05 10:07:14;;;;;;;;;;;;;;;;;;4983191;28;59438;-71
2023/12/05 10:09:39;;;;;;;;;;;;;;;;;;4981759;28;58900;-73
2023/12/05 10:12:05;;;;;;;;;;;;;;;;;;4978624;28;59260;-71
2023/12/05 10:14:30;;;;;;;;;;;;;;;;;;4980239;28;59194;-74
2023/12/05 10:16:55;;;;;;;;;;;;;;;;;;4983320;28;58574;-71
2023/12/05 10:19:20;;;;;;;;;;;;;;;;;;4982880;28;60261;-71
2023/12/05 10:21:45;;;;;;;;;;;;;;;;;;4983681;28;59212;-71
2023/12/05 10:24:10;;;;;;;;;;;;;;;;;;4981651;28;58417;-71
2023/12/05 10:26:35;;;;;;;;;;;;;;;;;;4980448;28;58970;-71
2023/12/05 10:29:00;;;;;;;;;;;;;;;;;;4981884;28;59929;-72
2023/12/05 10:31:25;;;;;;;;;;;;;;;;;;4980378;28;58468;-72
2023/12/05 10:33:50;;;;;;;;;;;;;;;;;;4982082;28;58440;-72
2023/12/05 10:36:15;;;;;;;;;;;;;;;;;;4981308;28;58362;-73
2023/12/05 10:38:40;;;;;;;;;;;;;;;;;;4982360;28;59511;-73
2023/12/05 10:41:06;;;;;;;;;;;;;;;;;;4981831;28;59183;-73
2023/12/05 10:43:31;;;;;;;;;;;;;;;;;;4982730;28;57947;-73
2023/12/05 10:45:56;;;;;;;;;;;;;;;;;;4986535;28;59197;-74
2023/12/05 10:48:23;;;;;;;;;;;;;;;;;;4984648;28;59399;-73
2023/12/05 10:50:48;;;;;;;;;;;;;;;;;;4983792;28;58343;-75
2023/12/05 10:53:14;;;;;;;;;;;;;;;;;;4983139;28;59214;-75
2023/12/05 10:55:40;;;;;;;;;;;;;;;;;;4983852;28;57837;-73
2023/12/05 10:58:05;;;;;;;;;;;;;;;;;;4985075;28;59724;-73
2023/12/05 11:00:30;;;;;;;;;;;;;;;;;;4985110;28;58493;-70
2023/12/05 11:02:55;;;;;;;;;;;;;;;;;;4985644;28;58490;-71
2023/12/05 11:05:20;;;;;;;;;;;;;;;;;;4983932;28;59090;-71
2023/12/05 11:07:45;;;;;;;;;;;;;;;;;;4982486;28;58900;-71
2023/12/05 11:10:11;;;;;;;;;;;;;;;;;;4983895;28;58525;-71
2023/12/05 11:12:36;;;;;;;;;;;;;;;;;;4985723;28;59413;-72
2023/12/05 11:15:01;;;;;;;;;;;;;;;;;;4985032;28;58431;-70
2023/12/05 11:17:26;;;;;;;;;;;;;;;;;;4986731;28;61410;-72
2023/12/05 11:19:51;;;;;;;;;;;;;;;;;;4981235;28;59856;-72
2023/12/05 11:22:16;;;;;;;;;;;;;;;;;;4983267;28;58694;-73
2023/12/05 11:24:41;;;;;;;;;;;;;;;;;;4981280;28;60485;-73
2023/12/05 11:27:06;;;;;;;;;;;;;;;;;;4984883;28;58835;-73
2023/12/05 11:29:32;;;;;;;;;;;;;;;;;;4983981;28;58455;-72
2023/12/05 11:31:57;;;;;;;;;;;;;;;;;;4983533;28;60132;-72
2023/12/05 11:34:22;;;;;;;;;;;;;;;;;;4982907;28;58963;-73
2023/12/05 11:36:47;;;;;;;;;;;;;;;;;;4986305;28;58470;-73
2023/12/05 11:39:12;;;;;;;;;;;;;;;;;;4983813;28;59346;-72
2023/12/05 11:41:37;;;;;;;;;;;;;;;;;;4984037;28;58413;-73
2023/12/05 11:44:02;;;;;;;;;;;;;;;;;;4984065;28;59331;-73
2023/12/05 11:46:28;;;;;;;;;;;;;;;;;;4981563;28;59202;-72
2023/12/05 11:48:53;;;;;;;;;;;;;;;;;;4985129;28;58643;-72
2023/12/05 11:51:18;;;;;;;;;;;;;;;;;;4982812;28;58831;-73
2023/12/05 11:53:43;;;;;;;;;;;;;;;;;;4983789;28;59256;-73
2023/12/05 11:56:08;;;;;;;;;;;;;;;;;;4985410;28;58751;-70
2023/12/05 11:58:33;;;;;;;;;;;;;;;;;;4985272;28;58780;-73
2023/12/05 12:00:58;;;;;;;;;;;;;;;;;;4984533;28;58434;-72
2023/12/05 12:03:23;;;;;;;;;;;;;;;;;;4983497;28;58532;-73
2023/12/05 12:05:48;;;;;;;;;;;;;;;;;;4983068;28;58766;-76
2023/12/05 12:08:13;;;;;;;;;;;;;;;;;;4982915;28;58400;-73
2023/12/05 12:10:38;;;;;;;;;;;;;;;;;;4982554;28;59708;-74
2023/12/05 12:13:04;;;;;;;;;;;;;;;;;;4983085;28;58821;-74
2023/12/05 12:15:29;;;;;;;;;;;;;;;;;;4981267;28;58561;-74
2023/12/05 12:17:54;;;;;;;;;;;;;;;;;;4981937;28;59555;-74
2023/12/05 12:20:19;;;;;;;;;;;;;;;;;;4982360;28;58481;-74
2023/12/05 12:22:44;;;;;;;;;;;;;;;;;;4983584;28;59340;-74
2023/12/05 12:25:11;;;;;;;;;;;;;;;;;;4984484;28;59242;-74
2023/12/05 12:27:38;;;;;;;;;;;;;;;;;;4982636;28;58331;-74
2023/12/05 12:30:03;;;;;;;;;;;;;;;;;;4984394;28;59738;-74
2023/12/05 12:32:28;;;;;;;;;;;;;;;;;;4981683;28;58635;-74
2023/12/05 12:34:53;;;;;;;;;;;;;;;;;;4983189;28;58435;-74
2023/12/05 12:37:18;;;;;;;;;;;;;;;;;;4985106;28;58636;-74
2023/12/05 12:39:44;;;;;;;;;;;;;;;;;;4985439;28;59297;-74
2023/12/05 12:42:10;;;;;;;;;;;;;;;;;;4981262;28;59815;-74
2023/12/05 12:44:35;;;;;;;;;;;;;;;;;;4981821;28;58936;-74
2023/12/05 12:47:00;;;;;;;;;;;;;;;;;;4983502;28;58465;-74
2023/12/05 12:49:26;;;;;;;;;;;;;;;;;;4983568;28;59450;-74
2023/12/05 12:51:51;;;;;;;;;;;;;;;;;;4983683;28;59003;-74
2023/12/05 12:54:16;;;;;;;;;;;;;;;;;;4983452;28;58296;-74
2023/12/05 12:56:41;;;;;;;;;;;;;;;;;;4982638;28;59873;-74
2023/12/05 12:59:06;;;;;;;;;;;;;;;;;;4982832;28;59201;-74
2023/12/05 13:01:41;;;;;;;;;;;;;;;;;;4982140;28;58418;-74
2023/12/05 13:04:06;;;;;;;;;;;;;;;;;;4983869;28;58510;-74
2023/12/05 13:06:31;;;;;;;;;;;;;;;;;;4984423;28;58400;-73
2023/12/05 13:08:56;;;;;;;;;;;;;;;;;;4981279;28;58374;-73
2023/12/05 13:11:21;;;;;;;;;;;;;;;;;;4981840;28;58797;-73
2023/12/05 13:13:47;;;;;;;;;;;;;;;;;;4980447;28;58415;-73
2023/12/05 13:16:12;;;;;;;;;;;;;;;;;;4982609;28;60413;-74
2023/12/05 13:18:37;;;;;;;;;;;;;;;;;;4979856;28;58769;-74
2023/12/05 13:21:02;;;;;;;;;;;;;;;;;;4982163;28;58414;-74
2023/12/05 13:23:27;;;;;;;;;;;;;;;;;;4982184;28;59649;-74
2023/12/05 13:25:53;;;;;;;;;;;;;;;;;;4981283;28;58268;-74
2023/12/05 13:28:18;;;;;;;;;;;;;;;;;;4982783;28;59165;-74
2023/12/05 13:30:43;;;;;;;;;;;;;;;;;;4982422;28;58755;-74
2023/12/05 13:33:08;;;;;;;;;;;;;;;;;;4981644;28;58332;-74
2023/12/05 13:35:33;;;;;;;;;;;;;;;;;;4981173;28;59550;-74
2023/12/05 13:37:58;;;;;;;;;;;;;;;;;;4980414;28;58916;-74
2023/12/05 13:40:23;;;;;;;;;;;;;;;;;;4979822;28;58076;-74
2023/12/05 13:42:48;;;;;;;;;;;;;;;;;;4983678;28;59338;-75
2023/12/05 13:45:14;;;;;;;;;;;;;;;;;;4981918;28;58577;-74
2023/12/05 13:47:39;;;;;;;;;;;;;;;;;;4981845;28;59553;-74
2023/12/05 13:50:06;;;;;;;;;;;;;;;;;;4983253;28;58862;-74
2023/12/05 13:52:31;;;;;;;;;;;;;;;;;;4981368;28;58436;-74
2023/12/05 13:54:56;;;;;;;;;;;;;;;;;;4982473;28;60637;-74
2023/12/05 13:57:21;;;;;;;;;;;;;;;;;;4982012;28;58668;-74
2023/12/05 13:59:46;;;;;;;;;;;;;;;;;;4983317;28;58458;-74
2023/12/05 14:02:11;;;;;;;;;;;;;;;;;;4981486;28;59712;-74
2023/12/05 14:04:36;;;;;;;;;;;;;;;;;;4982717;28;59693;-74
2023/12/05 14:07:01;;;;;;;;;;;;;;;;;;4981890;28;59136;-74
2023/12/05 14:09:26;;;;;;;;;;;;;;;;;;4980341;28;58915;-74
2023/12/05 14:11:52;;;;;;;;;;;;;;;;;;4977326;28;58806;-74
2023/12/05 14:14:17;;;;;;;;;;;;;;;;;;4978654;28;59723;-73
2023/12/05 14:16:42;;;;;;;;;;;;;;;;;;4979372;28;58808;-73
2023/12/05 14:19:07;;;;;;;;;;;;;;;;;;4980542;28;58520;-73
2023/12/05 14:21:32;;;;;;;;;;;;;;;;;;4982767;28;60262;-73
2023/12/05 14:23:57;;;;;;;;;;;;;;;;;;4984423;28;58352;-73
2023/12/05 14:26:22;;;;;;;;;;;;;;;;;;4983686;28;58448;-74
2023/12/05 14:28:47;;;;;;;;;;;;;;;;;;4983220;28;58186;-72
2023/12/05 14:31:12;;;;;;;;;;;;;;;;;;4983711;28;58389;-73
2023/12/05 14:33:37;;;;;;;;;;;;;;;;;;4985029;28;58506;-72
2023/12/05 14:36:02;;;;;;;;;;;;;;;;;;4984026;28;58669;-72
2023/12/05 14:38:28;;;;;;;;;;;;;;;;;;4980440;28;58558;-73
2023/12/05 14:40:54;;;;;;;;;;;;;;;;;;4985421;28;59544;-73
2023/12/05 14:43:19;;;;;;;;;;;;;;;;;;4982596;28;58799;-72
2023/12/05 14:45:44;;;;;;;;;;;;;;;;;;4987736;28;58383;-75
2023/12/05 14:48:09;;;;;;;;;;;;;;;;;;4984043;28;59342;-75
2023/12/05 14:50:34;;;;;;;;;;;;;;;;;;4985991;28;58503;-73
2023/12/05 14:52:59;;;;;;;;;;;;;;;;;;4986211;28;58843;-73
2023/12/05 14:55:25;;;;;;;;;;;;;;;;;;4983751;28;58550;-72
2023/12/05 14:57:50;;;;;;;;;;;;;;;;;;4987356;28;58343;-73
2023/12/05 15:00:17;;;;;;;;;;;;;;;;;;4984799;28;59482;-73
2023/12/05 15:02:42;;;;;;;;;;;;;;;;;;4984790;28;58862;-73
2023/12/05 15:05:07;;;;;;;;;;;;;;;;;;4983909;28;58406;-73
2023/12/05 15:07:32;;;;;;;;;;;;;;;;;;4980939;28;59452;-73
2023/12/05 15:09:57;;;;;;;;;;;;;;;;;;4984992;28;58698;-74
2023/12/05 15:12:22;;;;;;;;;;;;;;;;;;4983579;28;60341;-74
2023/12/05 15:14:47;;;;;;;;;;;;;;;;;;4982543;28;58949;-74
2023/12/05 15:17:13;;;;;;;;;;;;;;;;;;4984439;28;58197;-74
2023/12/05 15:19:38;;;;;;;;;;;;;;;;;;4984713;28;59612;-74
2023/12/05 15:22:03;;;;;;;;;;;;;;;;;;4984926;28;58986;-72
2023/12/05 15:24:29;;;;;;;;;;;;;;;;;;4986472;28;58604;-73
2023/12/05 15:26:54;;;;;;;;;;;;;;;;;;4985489;28;59482;-71
2023/12/05 15:29:19;;;;;;;;;;;;;;;;;;4976887;28;58859;-73
2023/12/05 15:31:44;;;;;;;;;;;;;;;;;;4984318;28;58359;-71
2023/12/05 15:34:10;;;;;;;;;;;;;;;;;;4986196;28;59035;-71
2023/12/05 15:36:35;;;;;;;;;;;;;;;;;;4985377;28;58511;-73
2023/12/05 15:39:00;;;;;;;;;;;;;;;;;;4984566;28;59334;-73
2023/12/05 15:41:25;;;;;;;;;;;;;;;;;;4982362;28;58481;-80
2023/12/05 15:43:51;;;;;;;;;;;;;;;;;;4986929;28;58375;-70
2023/12/05 15:46:16;;;;;;;;;;;;;;;;;;4984593;28;60156;-71
2023/12/05 15:48:41;;;;;;;;;;;;;;;;;;4983269;28;58940;-72
2023/12/05 15:51:06;;;;;;;;;;;;;;;;;;4983339;28;58616;-72
2023/12/05 15:53:31;;;;;;;;;;;;;;;;;;4983991;28;58893;-72
2023/12/05 15:55:57;;;;;;;;;;;;;;;;;;4984460;28;58604;-71
2023/12/05 15:58:22;;;;;;;;;;;;;;;;;;4985705;28;60654;-72
2023/12/05 16:00:47;;;;;;;;;;;;;;;;;;4983784;28;58885;-70
2023/12/05 16:03:12;;;;;;;;;;;;;;;;;;4983786;28;58523;-71
2023/12/05 16:05:37;;;;;;;;;;;;;;;;;;4984324;28;59440;-71
2023/12/05 16:08:02;;;;;;;;;;;;;;;;;;4982800;28;58973;-72
2023/12/05 16:10:28;;;;;;;;;;;;;;;;;;4984513;28;58587;-72
2023/12/05 16:12:53;;;;;;;;;;;;;;;;;;4982969;28;59381;-72
2023/12/05 16:15:18;;;;;;;;;;;;;;;;;;4981862;28;58609;-72
2023/12/05 16:17:43;;;;;;;;;;;;;;;;;;4984268;28;59537;-71
2023/12/05 16:20:08;;;;;;;;;;;;;;;;;;4982066;28;58367;-72
2023/12/05 16:22:34;;;;;;;;;;;;;;;;;;4984099;28;58398;-71
2023/12/05 16:24:59;;;;;;;;;;;;;;;;;;4984230;28;59333;-72
2023/12/05 16:27:24;;;;;;;;;;;;;;;;;;4983684;28;58976;-71
2023/12/05 16:29:49;;;;;;;;;;;;;;;;;;4982184;28;58344;-72
2023/12/05 16:32:14;;;;;;;;;;;;;;;;;;4980412;28;59407;-72